createdAt,value
2022-12-03T00:04:05.392Z,-0.92
2022-12-03T00:09:09.127Z,-1.13
2022-12-03T00:14:13.002Z,-1.00
2022-12-03T00:19:17.957Z,-1.02
2022-12-03T00:24:21.378Z,-0.99
2022-12-03T00:29:24.843Z,-0.93
2022-12-03T00:34:30.184Z,-1.10
2022-12-03T00:39:33.703Z,-1.12
2022-12-03T00:44:37.199Z,-1.11
2022-12-03T00:49:42.346Z,-1.01
2022-12-03T00:54:45.952Z,-1.15
2022-12-03T00:59:49.453Z,-0.82
2022-12-03T01:04:54.626Z,-1.18
2022-12-03T01:09:58.251Z,-1.09
2022-12-03T01:15:01.744Z,-1.04
2022-12-03T01:20:09.201Z,-1.12
2022-12-03T01:25:12.883Z,-1.19
2022-12-03T01:30:16.568Z,-1.00
2022-12-03T01:35:21.454Z,-0.92
2022-12-03T01:40:25.132Z,-0.87
2022-12-03T01:45:28.714Z,-0.87
2022-12-03T01:50:35.388Z,-1.08
2022-12-03T01:55:39.385Z,-1.25
2022-12-03T02:00:43.195Z,-1.12
2022-12-03T02:05:48.154Z,-1.38
2022-12-03T02:10:52.104Z,-1.44
2022-12-03T02:15:55.778Z,-1.23
2022-12-03T02:21:10.956Z,-0.98
2022-12-03T02:26:15.867Z,-0.96
2022-12-03T02:31:19.512Z,-0.92
2022-12-03T02:36:23.176Z,-0.89
2022-12-03T02:41:45.772Z,-0.99
2022-12-03T02:46:49.370Z,-1.19
2022-12-03T02:51:52.968Z,-1.18
2022-12-03T02:56:57.936Z,-1.18
2022-12-03T03:02:01.655Z,-1.05
2022-12-03T03:07:05.317Z,-1.08
2022-12-03T03:12:11.200Z,-1.16
2022-12-03T03:17:14.766Z,-1.05
2022-12-03T03:22:18.798Z,-1.30
2022-12-03T03:27:23.672Z,-1.36
2022-12-03T03:32:27.834Z,-1.25
2022-12-03T03:37:31.934Z,-1.20
2022-12-03T03:42:37.182Z,-1.04
2022-12-03T03:47:42.100Z,-1.41
2022-12-03T03:52:46.568Z,-1.08
2022-12-03T03:57:51.672Z,-1.52
2022-12-03T04:02:55.767Z,-0.98
2022-12-03T04:07:59.845Z,-1.12
2022-12-03T04:13:05.174Z,-1.12
2022-12-03T04:18:26.140Z,-0.95
2022-12-03T04:23:31.126Z,-1.00
2022-12-03T04:28:51.413Z,-1.18
2022-12-03T04:34:12.345Z,-1.18
2022-12-03T04:39:15.990Z,-1.13
2022-12-03T04:44:36.850Z,-1.00
2022-12-03T04:49:42.569Z,-1.24
2022-12-03T04:54:46.363Z,-1.33
2022-12-03T04:59:51.355Z,-1.16
2022-12-03T05:04:55.071Z,-1.22
2022-12-03T05:09:58.844Z,-1.13
2022-12-03T05:15:03.957Z,-0.91
2022-12-03T05:20:27.753Z,-1.03
2022-12-03T05:25:31.382Z,-1.25
2022-12-03T05:30:36.501Z,-1.04
2022-12-03T05:35:40.140Z,-1.02
2022-12-03T05:40:43.589Z,-1.08
2022-12-03T05:45:48.707Z,-1.22
2022-12-03T05:50:52.848Z,-1.46
2022-12-03T05:55:56.319Z,-1.31
2022-12-03T06:01:01.349Z,-1.37
2022-12-03T06:06:05.277Z,-0.99
2022-12-03T06:11:09.049Z,-1.04
2022-12-03T06:16:14.137Z,-1.06
2022-12-03T06:21:17.890Z,-1.24
2022-12-03T06:26:21.766Z,-0.96
2022-12-03T06:31:26.800Z,-1.19
2022-12-03T06:36:30.381Z,-1.15
2022-12-03T06:41:33.920Z,-1.22
2022-12-03T06:46:38.897Z,-1.09
2022-12-03T06:51:42.465Z,-1.43
2022-12-03T06:56:47.171Z,-1.27
2022-12-03T07:01:52.177Z,-1.24
2022-12-03T07:06:55.753Z,-1.21
2022-12-03T07:11:59.283Z,-1.39
2022-12-03T07:17:04.264Z,-0.97
2022-12-03T07:22:07.983Z,-1.16
2022-12-03T07:27:11.611Z,-1.25
2022-12-03T07:32:16.662Z,-1.07
2022-12-03T07:37:23.217Z,-1.01
2022-12-03T07:42:27.157Z,-1.00
2022-12-03T07:47:32.249Z,-1.08
2022-12-03T07:52:36.062Z,-0.85
2022-12-03T07:57:39.647Z,-1.11
2022-12-03T08:02:44.636Z,-1.09
2022-12-03T08:07:48.282Z,-1.17
2022-12-03T08:12:51.787Z,-1.55
2022-12-03T08:17:59.797Z,-1.24
2022-12-03T08:23:08.378Z,-0.72
2022-12-03T08:28:18.962Z,-0.99
2022-12-03T08:33:28.394Z,-0.81
2022-12-03T08:38:32.028Z,-0.91
2022-12-03T08:43:42.159Z,-0.99
2022-12-03T08:48:49.485Z,-0.88
2022-12-03T08:54:01.783Z,-0.53
2022-12-03T08:59:24.857Z,-0.58
2022-12-03T09:04:32.414Z,-0.47
2022-12-03T09:09:36.137Z,-0.78
2022-12-03T09:14:39.942Z,-0.35
2022-12-03T09:19:46.340Z,-0.34
2022-12-03T09:24:49.944Z,-0.30
2022-12-03T09:29:53.523Z,-0.59
2022-12-03T09:34:58.499Z,-0.45
2022-12-03T09:40:02.016Z,-0.50
2022-12-03T09:45:10.847Z,-0.46
2022-12-03T09:50:20.063Z,-0.58
2022-12-03T09:55:27.929Z,-0.38
2022-12-03T10:00:31.735Z,-0.73
2022-12-03T10:05:36.675Z,-0.34
2022-12-03T10:10:43.028Z,-0.36
2022-12-03T10:15:48.142Z,-0.40
2022-12-03T10:20:54.040Z,-0.55
2022-12-03T10:25:59.887Z,-0.22
2022-12-03T10:31:05.576Z,-0.08
2022-12-03T10:36:19.938Z,0.12
2022-12-03T10:41:27.374Z,-0.44
2022-12-03T10:46:31.042Z,-0.18
2022-12-03T10:51:36.656Z,-0.06
2022-12-03T10:56:40.796Z,-0.46
2022-12-03T11:01:44.633Z,-0.27
2022-12-03T11:06:50.419Z,-0.38
2022-12-03T11:11:54.562Z,0.00
2022-12-03T11:17:11.437Z,-0.29
2022-12-03T11:22:44.437Z,-0.15
2022-12-03T11:28:26.307Z,0.45
2022-12-03T11:33:32.803Z,0.09
2022-12-03T11:38:54.826Z,-0.06
2022-12-03T11:44:19.899Z,0.06
2022-12-03T11:49:38.554Z,-0.32
2022-12-03T11:54:42.133Z,0.23
2022-12-03T11:59:59.294Z,0.59
2022-12-03T12:05:20.537Z,0.10
2022-12-03T12:10:47.097Z,0.25
2022-12-03T12:15:50.659Z,-0.11
2022-12-03T12:20:55.522Z,0.09
2022-12-03T12:26:07.539Z,0.04
2022-12-03T12:31:11.835Z,0.02
2022-12-03T12:36:17.394Z,-0.09
2022-12-03T12:41:21.029Z,0.17
2022-12-03T12:46:47.126Z,0.18
2022-12-03T12:51:51.119Z,-0.38
2022-12-03T12:56:54.802Z,-0.14
2022-12-03T13:01:58.367Z,-0.61
2022-12-03T13:07:03.295Z,-0.40
2022-12-03T13:12:17.669Z,-0.05
2022-12-03T13:17:24.605Z,-0.03
2022-12-03T13:22:30.380Z,-0.09
2022-12-03T13:27:33.911Z,0.02
2022-12-03T13:32:38.910Z,-0.37
2022-12-03T13:37:44.084Z,-0.14
2022-12-03T13:42:48.256Z,-0.50
2022-12-03T13:47:56.637Z,-0.45
2022-12-03T13:53:03.723Z,-0.59
2022-12-03T13:58:07.185Z,-0.69
2022-12-03T14:03:10.600Z,-0.56
2022-12-03T14:08:15.556Z,-0.59
2022-12-03T14:13:19.075Z,-0.85
2022-12-03T14:18:22.508Z,-0.61
2022-12-03T14:23:27.644Z,-0.58
2022-12-03T14:28:31.351Z,-0.33
2022-12-03T14:33:35.109Z,-0.57
2022-12-03T14:38:40.002Z,-0.30
2022-12-03T14:43:43.529Z,-0.99
2022-12-03T14:48:47.033Z,-0.71
2022-12-03T14:53:51.849Z,-0.74
2022-12-03T14:58:55.519Z,-0.68
2022-12-03T15:03:59.320Z,-0.54
2022-12-03T15:09:05.220Z,-0.64
2022-12-03T15:14:09.133Z,-0.72
2022-12-03T15:19:12.604Z,-0.34
2022-12-03T15:24:17.629Z,-0.51
2022-12-03T15:29:21.368Z,-0.68
2022-12-03T15:34:24.839Z,-0.66
2022-12-03T15:39:29.771Z,-0.50
2022-12-03T15:44:33.224Z,-0.54
2022-12-03T15:49:36.731Z,-0.67
2022-12-03T15:54:41.774Z,-0.81
2022-12-03T16:00:01.067Z,-0.89
2022-12-03T16:05:06.939Z,-0.97
2022-12-03T16:10:13.246Z,-1.08
2022-12-03T16:15:19.874Z,-0.98
2022-12-03T16:20:25.718Z,-0.91
2022-12-03T16:25:30.629Z,-1.18
2022-12-03T16:30:34.183Z,-1.09
2022-12-03T16:35:37.743Z,-1.14
2022-12-03T16:40:42.600Z,-1.17
2022-12-03T16:46:20.437Z,-1.06
2022-12-03T16:51:25.505Z,-1.04
2022-12-03T16:56:30.499Z,-1.09
2022-12-03T17:01:34.104Z,-1.00
2022-12-03T17:06:37.805Z,-0.85
2022-12-03T17:11:42.859Z,-0.85
2022-12-03T17:16:47.075Z,-0.65
2022-12-03T17:21:51.396Z,-0.60
2022-12-03T17:26:56.182Z,-0.94
2022-12-03T17:31:59.699Z,-0.75
2022-12-03T17:37:03.313Z,-0.92
2022-12-03T17:42:08.244Z,-0.93
2022-12-03T17:47:11.880Z,-0.79
2022-12-03T17:52:15.318Z,-0.73
2022-12-03T17:57:20.198Z,-0.95
2022-12-03T18:02:23.879Z,-0.64
2022-12-03T18:07:27.609Z,-0.98
2022-12-03T18:12:32.573Z,-0.95
2022-12-03T18:17:36.470Z,-0.89
2022-12-03T18:22:40.257Z,-0.74
2022-12-03T18:27:46.704Z,-0.99
2022-12-03T18:32:50.891Z,-0.89
2022-12-03T18:37:54.468Z,-0.95
2022-12-03T18:42:59.431Z,-1.00
2022-12-03T18:48:02.993Z,-0.80
2022-12-03T18:53:06.604Z,-0.80
2022-12-03T18:58:12.663Z,-0.97
2022-12-03T19:03:16.441Z,-0.72
2022-12-03T19:08:20.130Z,-0.97
2022-12-03T19:13:25.480Z,-0.85
2022-12-03T19:18:28.959Z,-0.93
2022-12-03T19:23:32.637Z,-0.86
2022-12-03T19:28:38.145Z,-0.85
2022-12-03T19:33:43.476Z,-0.57
2022-12-03T19:38:53.464Z,-0.67
2022-12-03T19:44:04.074Z,-0.77
2022-12-03T19:49:11.949Z,-0.72
2022-12-03T19:54:15.904Z,-0.71
2022-12-03T19:59:21.150Z,-0.77
2022-12-03T20:04:24.914Z,-0.67
2022-12-03T20:09:28.470Z,-0.73
2022-12-03T20:14:33.695Z,-0.56
2022-12-03T20:19:37.719Z,-0.40
2022-12-03T20:24:41.584Z,-0.33
2022-12-03T20:29:47.102Z,-0.55
2022-12-03T20:34:50.813Z,-0.83
2022-12-03T20:39:55.154Z,-0.61
2022-12-03T20:45:01.741Z,-0.58
2022-12-03T20:50:06.569Z,-0.54
2022-12-03T20:55:11.186Z,-0.66
2022-12-03T21:00:17.339Z,-0.38
2022-12-03T21:05:21.641Z,-0.48
2022-12-03T21:10:44.540Z,-0.51
2022-12-03T21:15:49.512Z,-0.24
2022-12-03T21:20:53.134Z,-0.36
2022-12-03T21:26:03.195Z,-0.48
2022-12-03T21:31:11.001Z,-0.31
2022-12-03T21:36:17.342Z,-0.31
2022-12-03T21:41:21.414Z,-0.29
2022-12-03T21:47:11.579Z,-0.61
2022-12-03T21:51:51.043Z,-0.37
2022-12-03T21:56:54.714Z,-0.23
2022-12-03T22:01:59.673Z,-0.31
2022-12-03T22:07:03.658Z,-0.36
2022-12-03T22:12:08.112Z,-0.26
2022-12-03T22:17:13.274Z,-0.25
2022-12-03T22:22:16.936Z,-0.61
2022-12-03T22:27:20.685Z,-0.36
2022-12-03T22:32:25.814Z,-0.31
2022-12-03T22:37:29.339Z,-0.32
2022-12-03T22:42:32.955Z,-0.40
2022-12-03T22:47:38.460Z,-0.40
2022-12-03T22:52:44.582Z,-0.13
2022-12-03T22:57:50.446Z,-0.09
2022-12-03T23:02:55.753Z,-0.22
2022-12-03T23:07:59.598Z,-0.14
2022-12-03T23:13:03.946Z,-0.32
2022-12-03T23:18:09.755Z,0.08
2022-12-03T23:23:14.547Z,0.21
2022-12-03T23:28:18.408Z,0.10
2022-12-03T23:33:23.975Z,0.22
2022-12-03T23:38:27.993Z,0.36
2022-12-03T23:43:32.149Z,0.10
2022-12-03T23:48:41.284Z,0.32
2022-12-03T23:53:45.313Z,0.38
2022-12-03T23:58:49.149Z,0.46
